Ardmore, OK

7:06 PM CDT on September 19, 2014 (GMT -0500)
Ardmore Municipal | Change Station
CLOSE
Current Station
Airport
Location: Ardmore,
Elevation: 761 ft
Nearby Weather Stations

Elev 761 ft 34.30 °N, 97.01 °W | Updated 11 minutes ago

Partly Cloudy
Partly Cloudy
82 °F
Feels Like 86 °F
N
6
Wind Variable Wind from ESE

Today
High -- | Low -- °F
--% Chance of Precip.
Yesterday
High -- | Low -- °F
Precip. -- in
7:14 AM 7:29 PM
Waning Crescent, 16% visible
Pressure 29.92 in
Visibility 10.0 miles
Clouds Clear
Heat Index 86 °F
Dew Point 70 °F
Humidity 66%
Rainfall 0.00 in
Snow Depth Not available.
UV 0 out of 12
Pollen 10.50 out of 12
Air Quality Not available.
Flu Activity Not available.
METAR KADM 192355Z 12005KT 10SM SKC 28/21 A2992

More Conditions Fewer Conditions

Pressure 29.92 in
Visibility 10.0 miles
Clouds Clear
Heat Index 86 °F
Dew Point 70 °F
Humidity 66%
Rainfall 0.00 in
Snow Depth Not available.
UV 0 out of 12
Pollen 10.50 out of 12
Air Quality Not available.
Flu Activity Not available.
METAR KADM 192355Z 12005KT 10SM SKC 28/21 A2992

More Conditions Fewer Conditions

10-Day Weather Forecast

Almanac

Astronomy

Sep. 19, 2014 Rise Set
Actual Time 7:14 AM CDT 7:29 PM CDT
Civil Twilight 6:49 AM CDT 7:54 PM CDT
Nautical Twilight 6:20 AM CDT 8:23 PM CDT
Astronomical Twilight 5:50 AM CDT 8:53 PM CDT
Moon 3:09 AM CDT (9/19) 4:51 PM CDT (9/19)
Length of Visible Light 13h 04m
Length of Day
12h 14m
Tomorrow will be 2m 6s shorter.
Waning Crescent, 16% of the Moon is Illuminated
Today
Waning Crescent
Sep 24
New
Oct 1
First Quarter
Oct 8
Full
Oct 15
Last Quarter

Today's Extremes

State Highs State Lows

Community

WunderPhotos

Upload Photos

1,754,734 photos uploaded!

WunderBlogs® & News

Nearby

Snow Depth

Station Depth Elevation
No new snow has been reported.

Earthquake Activity

City Distance Mag. Time & Date
Luther, Oklahoma 104 miles 2.7 4:47 PM CDT
2014-09-19
Guthrie, Oklahoma 115 miles 3.9 12:23 PM CDT
2014-09-19
Jones, Oklahoma 98 miles 2.8 1:13 AM CDT
2014-09-19
Guthrie, Oklahoma 116 miles 3.0 7:08 PM CDT
2014-09-18
Minimum magnitude displayed is 2.5.

Coastal Water Temperatures

Place Temperature
No Stations Reporting

Nearby Weather Stations